• Join FlightAware (Why Join?)
  • Login
  • US Flag 
06:06AM EDT


 

Airport Tracker/Info


-or-


 

Live Flight TrackerFlight Track Log ✈ AAL371 ✈ 17-Nov-2013 ✈ KLGA - KORD

Flight Track Log - Related Links

Times and Time Zones

All times are in EST time to prevent confusion due to time zone crossing. See the AAL371 flight status page for this flight to view local times or setup timezone preferences in your user account.

Time Position Orientation Groundspeed Altitude Reporting Facility
EST Latitude Longitude Course Direction KTS MPH feet Rate Location/Type
10:35PM 40.7833 -73.7833 304° West 207 238 2,700  Level New York TRACON
10:36PM 40.8333 -73.7500 27° Northeast 249 287 4,400 1,620 Climbing New York TRACON
10:37PM 40.8345 -74.2613 312° West  Level Estimated
10:37PM 40.8833 -73.8000 323° Northwest 280 322 5,800  Level New York TRACON
10:38PM 40.8532 -74.3910 270° West  Level Estimated
10:38PM 40.9500 -73.8833 317° Northwest 292 336 8,800  Level New York TRACON
10:39PM 40.8719 -74.5208 294° West  Level Estimated
10:39PM 40.9667 -73.9833 282° West 279 321 11,200  Level New York TRACON
10:40PM 40.8904 -74.6506 304° West  Level Estimated
10:40PM 41.0000 -74.0833 294° West 317 365 13,200  Level New York TRACON
10:41PM 41.0167 -74.2167 279° West 341 392 15,000 1,320 Climbing New York TRACON
10:43PM 41.0850 -74.4653 290° West 361 415 17,500 1,260 Climbing New York Center
10:44PM 41.1314 -74.5836 298° West 361 415 18,900 1,860 Climbing New York Center
10:45PM 41.1833 -74.7106 299° West 374 430 21,300 2,100 Climbing New York Center
10:46PM 41.2311 -74.8347 297° West 379 436 23,200 1,740 Climbing New York Center
10:47PM 41.2753 -74.9478 297° West 379 436 24,800 1,500 Climbing New York Center
10:48PM 41.3228 -75.0722 297° West 379 436 26,200 1,440 Climbing New York Center
10:49PM 41.3722 -75.2025 297° West 384 442 27,700 1,440 Climbing New York Center
10:50PM 41.4192 -75.3331 296° West 384 442 29,100 1,440 Climbing New York Center
10:51PM 41.4664 -75.4581 297° West 389 448 30,600 1,200 Climbing New York Center
10:52PM 41.5053 -75.5825 293° West 383 441 31,600 660 Climbing New York Center
10:53PM 41.5414 -75.7128 290° West 378 435 32,000 180 Climbing New York Center
10:54PM 41.5797 -75.8458 291° West 378 435 32,000  Level New York Center
10:55PM 41.6178 -75.9764 291° West 378 435 32,000  Level New York Center
10:57PM 41.7056 -76.2908 291° West 376 433 32,000  Level Cleveland Center
10:58PM 41.7414 -76.4197 290° West 371 427 32,000  Level Cleveland Center
10:59PM 41.7772 -76.5525 290° West 378 435 32,000  Level Cleveland Center
11:00PM 41.8147 -76.6839 291° West 378 435 32,000  Level Cleveland Center
11:01PM 41.8506 -76.8144 290° West 376 433 32,000  Level Cleveland Center
11:02PM 41.8869 -76.9469 290° West 378 435 32,000  Level Cleveland Center
11:03PM 41.9222 -77.0797 290° West 378 435 32,000  Level Cleveland Center
11:04PM 41.9583 -77.2150 290° West 382 440 32,000  Level Cleveland Center
11:05PM 41.9950 -77.3503 290° West 386 444 32,000  Level Cleveland Center
11:06PM 42.0317 -77.4864 290° West 385 443 32,000  Level Cleveland Center
11:07PM 42.0686 -77.6214 290° West 384 442 32,000  Level Cleveland Center
11:08PM 42.1050 -77.7558 290° West 382 440 32,000  Level Cleveland Center
11:09PM 42.1411 -77.8944 289° West 388 447 32,000  Level Cleveland Center
11:10PM 42.1794 -78.0336 290° West 394 453 32,000  Level Cleveland Center
11:11PM 42.2164 -78.1719 290° West 391 450 32,000  Level Cleveland Center
11:12PM 42.2592 -78.3389 289° West 392 451 32,000  Level Cleveland Center
11:13PM 42.2936 -78.4800 288° West 394 453 32,000  Level Cleveland Center
11:14PM 42.3275 -78.6178 288° West 388 447 32,000  Level Cleveland Center
11:15PM 42.3614 -78.7561 288° West 387 445 32,000  Level Cleveland Center
11:16PM 42.3944 -78.8903 288° West 378 435 32,000  Level Cleveland Center
11:17PM 42.4061 -79.0156 277° West 355 409 32,000  Level Cleveland Center
11:18PM 42.4150 -79.1456 275° West 354 407 32,000  Level Cleveland Center
11:19PM 42.4239 -79.2806 275° West 363 418 32,000  Level Cleveland Center
11:20PM 42.4317 -79.4125 275° West 356 410 32,000  Level Cleveland Center
11:21PM 42.4428 -79.5756 275° West 365 420 32,000  Level Cleveland Center
11:22PM 42.4511 -79.7125 275° West 367 422 32,000  Level Cleveland Center
11:23PM 42.4600 -79.8525 275° West 378 435 32,000  Level Cleveland Center
11:24PM 42.4675 -79.9914 274° West 382 440 32,000  Level Cleveland Center
11:26PM 42.4747 -80.1319 274° West 373 429 32,000  Level Cleveland Center
11:27PM 42.4825 -80.2717 274° West 371 427 32,000  Level Cleveland Center
11:28PM 42.4897 -80.4111 274° West 369 425 32,000  Level Cleveland Center
11:29PM 42.4978 -80.5536 274° West 376 433 32,000  Level Cleveland Center
11:30PM 42.5053 -80.6939 274° West 374 430 32,000  Level Cleveland Center
11:31PM 42.5092 -80.8358 272° West 374 430 32,000  Level Cleveland Center
11:32PM 42.5136 -80.9736 273° West 366 421 32,000  Level Cleveland Center
11:33PM 42.5175 -81.1131 272° West 368 423 32,000  Level Cleveland Center
11:34PM 42.5219 -81.2528 273° West 369 425 32,000  Level Cleveland Center
11:35PM 42.5367 -81.3931 278° West 375 432 32,000  Level Cleveland Center
11:36PM 42.5528 -81.5339 279° West 376 433 32,000  Level Cleveland Center
11:37PM 42.5678 -81.6772 278° West 380 437 32,000  Level Cleveland Center
11:38PM 42.5861 -81.8356 279° West 379 436 32,000  Level Cleveland Center
11:39PM 42.6025 -81.9842 279° West 380 437 32,000  Level Cleveland Center
11:40PM 42.6167 -82.1197 278° West 382 440 32,000  Level Cleveland Center
11:41PM 42.6328 -82.2636 279° West 387 445 32,000  Level Cleveland Center
11:42PM 42.6472 -82.4067 278° West 385 443 32,000  Level Cleveland Center
11:43PM 42.6622 -82.5511 278° West 388 447 32,000  Level Cleveland Center
11:44PM 42.6775 -82.6953 278° West 388 447 32,000  Level Cleveland Center
11:45PM 42.6939 -82.8528 278° West 384 442 32,000  Level Cleveland Center
11:46PM 42.7061 -82.9828 277° West 388 447 32,000  Level Cleveland Center
11:47PM 42.7231 -83.1258 279° West 389 448 32,000  Level Cleveland Center
11:48PM 42.7392 -83.2703 279° West 390 449 32,000  Level Cleveland Center
11:49PM 42.7603 -83.4436 279° West 390 449 32,000  Level Cleveland Center
11:50PM 42.7764 -83.5867 279° West 388 447 32,000  Level Cleveland Center
11:51PM 42.7928 -83.7294 279° West 386 444 32,000  Level Cleveland Center
11:52PM 42.8078 -83.8708 278° West 382 440 32,000  Level Cleveland Center
11:53PM 42.8233 -84.0119 279° West 379 436 32,000  Level Cleveland Center
11:54PM 42.8406 -84.1653 279° West 382 440 32,000  Level Cleveland Center
11:55PM 42.8542 -84.2942 278° West 378 435 32,000  Level Cleveland Center
11:56PM 42.8644 -84.3914 278° West 380 437 32,000  Level Chicago Center
11:57PM 42.8800 -84.5356 278° West 385 443 32,000  Level Chicago Center
11:58PM 42.8711 -84.7083 266° West 388 447 32,000  Level Chicago Center
11:59PM 42.8564 -84.8517 262° West 385 443 32,000  Level Chicago Center
12:00AM 42.8419 -84.9931 262° West 380 437 32,000  Level Chicago Center
12:01AM 42.8264 -85.1314 261° West 373 429 32,000  Level Chicago Center
12:02AM 42.8114 -85.2711 262° West 372 428 32,000  Level Chicago Center
12:03AM 42.7961 -85.4094 261° West 370 426 32,000 -300 Level Chicago Center
12:04AM 42.7781 -85.5486 260° West 372 428 31,500 -1,320 Descending Chicago Center
12:05AM 42.7533 -85.6858 256° West 371 427 29,400 -1,920 Descending Chicago Center
12:07AM 42.7039 -85.9594 256° West 369 425 25,700 -1,920 Descending Chicago Center
12:08AM 42.6806 -86.0883 256° West 355 409 23,600 -2,040 Descending Chicago Center
12:09AM 42.6561 -86.2164 255° West 350 403 21,600 -2,040 Descending Chicago Center
12:10AM 42.6317 -86.3436 255° West 347 399 19,600 -1,980 Descending Chicago Center
12:11AM 42.6072 -86.4706 255° West 347 399 17,600 -1,860 Descending Chicago Center
12:12AM 42.5853 -86.5900 256° West 329 379 15,900 -1,680 Descending Chicago Center
12:13AM 42.5639 -86.7108 257° West 330 380 14,300 -1,560 Descending Chicago Center
12:14AM 42.5342 -86.8264 251° West 326 375 12,800 -1,500 Descending Chicago Center
12:15AM 42.5033 -86.9397 250° West 323 372 11,300 -1,320 Descending Chicago Center
12:16AM 42.4722 -87.0461 248° West 309 356 10,200 -720 Descending Chicago Center
12:17AM 42.4442 -87.1494 250° West 295 339 9,900 -600 Descending Chicago Center
12:18AM 42.4194 -87.2386 249° West 259 298 9,000 -480 Descending Chicago Center
12:19AM 42.3969 -87.3258 251° West 247 284 9,000 -660 Level Chicago Center
12:20AM 42.3317 -87.3883 215° Southwest 274 315 7,700 -1,200 Descending Chicago Center
12:21AM 42.2656 -87.4036 190° South 278 320 6,600 -900 Descending Chicago Center
12:22AM 42.1869 -87.4228 190° South 286 329 6,000 -600 Descending Chicago Center
12:23AM 42.1106 -87.4408 190° South 282 325 5,400 -900 Descending Chicago Center
12:24AM 42.0342 -87.4567 189° South 280 322 4,300 -720 Descending Chicago Center
12:25AM 41.9722 -87.4933 204° Southwest 232 267 4,000 -180 Descending Chicago Center
12:26AM 41.9703 -87.5411 267° West 164 189 4,000  Level Chicago Center
12:27AM 41.9692 -87.5939 268° West 147 169 4,000  Level Chicago Center
12:28AM 41.9667 -87.6333 265° West 137 158 4,000 -120 Level Chicago TRACON
12:29AM 41.9667 -87.6833 270° West 134 154 3,800 -540 Descending Chicago TRACON
12:30AM 41.9667 -87.7333 270° West 134 154 3,000 -840 Descending Chicago TRACON
12:31AM 41.9667 -87.7833 270° West 138 159 2,200 -720 Descending Chicago TRACON
12:32AM 41.9667 -87.8333 270° West 125 144 1,500 -660 Descending Chicago TRACON